»·PEaware :: AAL1478 KRDU-KDFW

AAL1478 :: KRDU-KDFW

FLIGHT INFORMATION

Flight Status: Arrived
Operator:
American Airlines
More flights by this operator :: More flights under this callsign
Pilot: Drew L. (13237)
Aircraft: AIRBUS A319
(A319)
More flights by this aircraft type
Origin: KRDU Raleigh-Durham Intl
United States
Destination: KDFW Dallas-Ft Worth Intl
United States
More flights between these airports :: More routes between these airports
Route: SHPRD3 SHPRD VXV MEM LIT MEEOW FEWWW SEEVR4
File this flight plan on PilotEdge
Remarks: RMK / SIMBRIEF
Altitude:
(Current/Filed)
36,000ft
Speed:
(Current/Filed)
456kts
Departed: 07-Oct-20 07:59 PM
Arrived: 07-Oct-20 10:31 PM
Distance/Time
Traveled:
919nm/2:32
Distance/Time
To Go:
Arrived

Flight Plot

Page will automatically refresh every two minutes.

Flight plan parsing failed; only flown route is shown


Map Options




Map Legend


Flown Route
Filed Route
Departure Airport
Arrival Airport
Navaid (VOR, NDB)
Fix

Horizontal Profiles

Position Reports

Time Latitude Longitude Heading Altitude Ground
Speed
07-Oct-20 19:27 35.873690 -78.789873 316 418ft 0kts
07-Oct-20 19:28 35.873690 -78.789873 316 418ft 0kts
07-Oct-20 19:29 35.873690 -78.789873 316 418ft 0kts
07-Oct-20 19:30 35.873690 -78.789873 316 418ft 0kts
07-Oct-20 19:31 35.873690 -78.789873 316 418ft 0kts
07-Oct-20 19:32 35.873690 -78.789873 316 418ft 0kts
07-Oct-20 19:33 35.873690 -78.789873 316 418ft 0kts
07-Oct-20 19:34 35.873690 -78.789873 316 418ft 0kts
07-Oct-20 19:35 35.873690 -78.789873 316 418ft 0kts
07-Oct-20 19:36 35.873690 -78.789873 316 418ft 0kts
07-Oct-20 19:37 35.873690 -78.789873 316 418ft 0kts
07-Oct-20 19:38 35.873690 -78.789873 316 418ft 0kts
07-Oct-20 19:39 35.873690 -78.789873 316 418ft 0kts
07-Oct-20 19:40 35.873690 -78.789873 316 418ft 0kts
07-Oct-20 19:41 35.873690 -78.789873 316 418ft 0kts
07-Oct-20 19:42 35.873690 -78.789873 316 418ft 0kts
07-Oct-20 19:43 35.873690 -78.789873 316 418ft 0kts
07-Oct-20 19:44 35.873690 -78.789873 316 418ft 0kts
07-Oct-20 19:45 35.873690 -78.789873 316 418ft 0kts
07-Oct-20 19:46 35.873690 -78.789873 316 418ft 0kts
07-Oct-20 19:47 35.873690 -78.789873 316 418ft 0kts
07-Oct-20 19:48 35.873690 -78.789873 316 418ft 0kts
07-Oct-20 19:49 35.873545 -78.789701 316 419ft 2kts
07-Oct-20 19:50 35.873093 -78.789217 342 421ft 2kts
07-Oct-20 19:51 35.872648 -78.789369 45 420ft 0kts
07-Oct-20 19:52 35.872647 -78.789370 45 420ft 0kts
07-Oct-20 19:53 35.872647 -78.789370 45 420ft 0kts
07-Oct-20 19:54 35.872647 -78.789370 45 420ft 0kts
07-Oct-20 19:55 35.874643 -78.786893 45 427ft 13kts
07-Oct-20 19:56 35.877614 -78.783248 44 432ft 16kts
07-Oct-20 19:57 35.879032 -78.779590 226 421ft 0kts
07-Oct-20 19:58 35.861521 -78.801278 226 1065ft 177kts
07-Oct-20 19:59 35.826569 -78.847843 252 4024ft 211kts
07-Oct-20 20:00 35.828618 -78.929309 272 6664ft 261kts
07-Oct-20 20:01 35.830598 -79.019107 273 10128ft 268kts
07-Oct-20 20:02 35.832464 -79.120797 273 11746ft 333kts
07-Oct-20 20:03 35.834507 -79.246535 273 13324ft 389kts
07-Oct-20 20:04 35.829228 -79.380918 267 16121ft 400kts
07-Oct-20 20:05 35.818364 -79.519168 266 18512ft 411kts
07-Oct-20 20:06 35.796263 -79.659308 261 20611ft 422kts
07-Oct-20 20:07 35.771788 -79.802727 261 22482ft 432kts
07-Oct-20 20:08 35.746675 -79.948698 261 24149ft 440kts
07-Oct-20 20:09 35.721095 -80.096026 261 25993ft 436kts
07-Oct-20 20:10 35.695871 -80.240496 261 27828ft 429kts
07-Oct-20 20:11 35.670612 -80.383930 261 29497ft 423kts
07-Oct-20 20:12 35.660112 -80.526485 274 31004ft 412kts
07-Oct-20 20:13 35.670559 -80.665532 277 32317ft 406kts
07-Oct-20 20:14 35.682284 -80.803550 277 33606ft 401kts
07-Oct-20 20:15 35.693752 -80.939730 277 34731ft 396kts
07-Oct-20 20:16 35.704887 -81.073276 277 35855ft 388kts
07-Oct-20 20:17 35.715704 -81.204750 277 36086ft 384kts
07-Oct-20 20:18 35.726328 -81.335647 277 36089ft 384kts
07-Oct-20 20:19 35.736860 -81.467194 277 36095ft 384kts
07-Oct-20 20:20 35.747177 -81.598051 277 36122ft 384kts
07-Oct-20 20:21 35.757368 -81.729432 276 36141ft 384kts
07-Oct-20 20:22 35.767376 -81.860434 276 36146ft 384kts
07-Oct-20 20:23 35.777264 -81.991319 276 36141ft 384kts
07-Oct-20 20:24 35.787067 -82.123333 276 36132ft 384kts
07-Oct-20 20:25 35.796734 -82.254911 276 36147ft 385kts
07-Oct-20 20:26 35.806212 -82.386243 276 36171ft 385kts
07-Oct-20 20:27 35.815563 -82.517725 276 36179ft 385kts
07-Oct-20 20:28 35.824758 -82.649043 276 36181ft 385kts
07-Oct-20 20:29 35.833795 -82.780892 276 36174ft 385kts
07-Oct-20 20:30 35.842732 -82.912363 276 36166ft 383kts
07-Oct-20 20:31 35.851477 -83.043270 275 36165ft 382kts
07-Oct-20 20:32 35.860038 -83.174095 275 36162ft 382kts
07-Oct-20 20:33 35.868474 -83.305005 275 36158ft 382kts
07-Oct-20 20:34 35.876805 -83.436224 275 36156ft 382kts
07-Oct-20 20:35 35.884996 -83.567204 275 36156ft 382kts
07-Oct-20 20:36 35.893046 -83.698712 275 36156ft 382kts
07-Oct-20 20:37 35.900793 -83.829990 273 36155ft 382kts
07-Oct-20 20:38 35.896255 -83.960643 265 36152ft 385kts
07-Oct-20 20:39 35.880472 -84.093697 264 36149ft 385kts
07-Oct-20 20:40 35.864600 -84.224538 264 36147ft 385kts
07-Oct-20 20:41 35.848479 -84.355821 264 36150ft 386kts
07-Oct-20 20:42 35.832270 -84.486522 264 36162ft 386kts
07-Oct-20 20:43 35.815910 -84.617232 264 36170ft 386kts
07-Oct-20 20:44 35.799349 -84.748567 264 36172ft 386kts
07-Oct-20 20:45 35.782743 -84.879036 264 36178ft 386kts
07-Oct-20 20:46 35.765962 -85.009687 264 36187ft 386kts
07-Oct-20 20:47 35.749026 -85.140505 263 36191ft 386kts
07-Oct-20 20:48 35.731946 -85.270927 263 36190ft 387kts
07-Oct-20 20:49 35.714628 -85.401951 263 36179ft 387kts
07-Oct-20 20:50 35.697186 -85.532970 263 36168ft 387kts
07-Oct-20 20:51 35.679569 -85.664141 262 36168ft 387kts
07-Oct-20 20:52 35.662007 -85.794141 262 36165ft 387kts
07-Oct-20 20:53 35.644077 -85.925537 262 36164ft 387kts
07-Oct-20 20:54 35.626051 -86.056460 262 36163ft 387kts
07-Oct-20 20:55 35.607916 -86.187076 262 36160ft 387kts
07-Oct-20 20:56 35.589697 -86.317230 262 36158ft 387kts
07-Oct-20 20:57 35.571272 -86.447847 262 36156ft 387kts
07-Oct-20 20:58 35.552715 -86.578318 262 36156ft 387kts
07-Oct-20 20:59 35.533993 -86.708899 262 36156ft 387kts
07-Oct-20 21:00 35.515222 -86.839002 262 36156ft 387kts
07-Oct-20 21:02 35.496274 -86.969344 261 36153ft 388kts
07-Oct-20 21:03 35.477129 -87.099898 260 36145ft 389kts
07-Oct-20 21:04 35.457746 -87.230624 260 36138ft 390kts
07-Oct-20 21:05 35.438238 -87.361288 260 36136ft 390kts
07-Oct-20 21:06 35.418529 -87.492411 260 36137ft 390kts
07-Oct-20 21:07 35.398763 -87.622928 260 36144ft 390kts
07-Oct-20 21:08 35.378828 -87.753806 260 36145ft 390kts
07-Oct-20 21:09 35.358760 -87.884489 260 36145ft 390kts
07-Oct-20 21:10 35.338589 -88.014734 260 36145ft 390kts
07-Oct-20 21:11 35.318230 -88.145191 260 36147ft 390kts
07-Oct-20 21:12 35.297701 -88.275766 260 36150ft 390kts
07-Oct-20 21:13 35.277370 -88.404144 260 36154ft 390kts
07-Oct-20 21:14 35.256357 -88.535870 260 36154ft 390kts
07-Oct-20 21:15 35.235453 -88.665967 259 36157ft 390kts
07-Oct-20 21:16 35.214456 -88.796088 259 36154ft 390kts
07-Oct-20 21:17 35.193408 -88.925539 259 36152ft 389kts
07-Oct-20 21:17 35.175699 -89.033604 258 36144ft 388kts
07-Oct-20 21:18 35.154294 -89.163005 258 36137ft 389kts
07-Oct-20 21:20 35.129157 -89.314019 258 36136ft 389kts
07-Oct-20 21:20 35.111096 -89.421853 258 36136ft 388kts
07-Oct-20 21:21 35.089286 -89.551185 258 36136ft 389kts
07-Oct-20 21:23 35.063686 -89.702030 257 36137ft 389kts
07-Oct-20 21:23 35.045329 -89.809497 257 36136ft 389kts
07-Oct-20 21:25 35.019269 -89.960613 257 36140ft 391kts
07-Oct-20 21:25 35.002792 -90.069262 259 36143ft 392kts
07-Oct-20 21:26 34.983951 -90.200616 259 36139ft 394kts
07-Oct-20 21:27 34.964677 -90.332560 259 36136ft 396kts
07-Oct-20 21:28 34.945228 -90.464479 259 36136ft 398kts
07-Oct-20 21:29 34.925447 -90.597446 258 36137ft 400kts
07-Oct-20 21:30 34.905442 -90.731205 258 36140ft 402kts
07-Oct-20 21:31 34.884900 -90.865162 258 36143ft 404kts
07-Oct-20 21:32 34.864239 -90.999730 258 36146ft 404kts
07-Oct-20 21:33 34.843650 -91.133943 257 36143ft 402kts
07-Oct-20 21:34 34.823038 -91.267124 257 36138ft 402kts
07-Oct-20 21:35 34.802269 -91.400363 257 36137ft 402kts
07-Oct-20 21:36 34.781318 -91.533922 256 36136ft 402kts
07-Oct-20 21:37 34.760241 -91.667161 256 36138ft 402kts
07-Oct-20 21:38 34.739067 -91.800695 256 36135ft 402kts
07-Oct-20 21:39 34.717682 -91.934104 256 36130ft 402kts
07-Oct-20 21:40 34.696189 -92.067168 256 36128ft 401kts
07-Oct-20 21:41 34.672340 -92.199721 252 36127ft 401kts
07-Oct-20 21:42 34.638919 -92.328353 251 36130ft 400kts
07-Oct-20 21:43 34.605007 -92.457351 251 36134ft 400kts
07-Oct-20 21:44 34.570945 -92.586188 251 36135ft 400kts
07-Oct-20 21:45 34.536741 -92.715180 250 36135ft 400kts
07-Oct-20 21:46 34.502558 -92.843489 250 36135ft 400kts
07-Oct-20 21:47 34.468292 -92.971446 249 36135ft 399kts
07-Oct-20 21:48 34.433977 -93.098902 248 36135ft 397kts
07-Oct-20 21:49 34.399561 -93.225783 248 36135ft 397kts
07-Oct-20 21:50 34.365059 -93.352514 248 36135ft 397kts
07-Oct-20 21:51 34.330325 -93.479563 248 36135ft 397kts
07-Oct-20 21:52 34.292063 -93.604799 245 36135ft 396kts
07-Oct-20 21:53 34.252125 -93.728847 245 36141ft 396kts
07-Oct-20 21:54 34.212069 -93.852391 245 36152ft 396kts
07-Oct-20 21:55 34.173071 -93.976432 246 36149ft 396kts
07-Oct-20 21:56 34.135018 -94.101233 246 36138ft 396kts
07-Oct-20 21:57 34.096780 -94.225608 246 36122ft 396kts
07-Oct-20 21:58 34.058378 -94.349898 246 36112ft 396kts
07-Oct-20 21:59 34.019783 -94.474283 246 36110ft 396kts
07-Oct-20 22:00 33.981077 -94.598499 246 36110ft 396kts
07-Oct-20 22:01 33.942266 -94.722807 246 35817ft 395kts
07-Oct-20 22:02 33.904002 -94.844864 245 34813ft 387kts
07-Oct-20 22:03 33.865032 -94.967297 244 33809ft 392kts
07-Oct-20 22:04 33.825703 -95.091210 244 32806ft 400kts
07-Oct-20 22:05 33.785787 -95.216597 244 31804ft 405kts
07-Oct-20 22:06 33.744959 -95.344309 243 29274ft 414kts
07-Oct-20 22:07 33.702737 -95.475012 244 26382ft 422kts
07-Oct-20 22:08 33.662326 -95.599874 243 24686ft 392kts
07-Oct-20 22:09 33.623279 -95.719973 243 22583ft 380kts
07-Oct-20 22:10 33.585340 -95.836296 243 20546ft 371kts
07-Oct-20 22:11 33.548148 -95.949758 244 18613ft 362kts
07-Oct-20 22:12 33.511551 -96.060990 244 16755ft 354kts
07-Oct-20 22:13 33.475707 -96.169547 245 14953ft 346kts
07-Oct-20 22:14 33.437089 -96.270340 230 13858ft 315kts
07-Oct-20 22:15 33.380588 -96.348841 226 12281ft 308kts
07-Oct-20 22:16 33.327507 -96.426020 238 11317ft 285kts
07-Oct-20 22:17 33.300778 -96.515237 249 10003ft 283kts
07-Oct-20 22:18 33.285240 -96.605180 265 8942ft 273kts
07-Oct-20 22:19 33.281377 -96.694595 264 7762ft 266kts
07-Oct-20 22:20 33.277278 -96.782401 264 6410ft 261kts
07-Oct-20 22:21 33.273697 -96.867587 266 4901ft 252kts
07-Oct-20 22:22 33.244471 -96.929744 194 3402ft 233kts
07-Oct-20 22:23 33.185567 -96.951198 196 3114ft 217kts
07-Oct-20 22:24 33.127908 -96.974146 197 3116ft 218kts
07-Oct-20 22:25 33.070259 -96.997334 197 3022ft 219kts
07-Oct-20 22:26 33.012258 -97.009081 179 2390ft 193kts
07-Oct-20 22:27 32.968061 -97.009437 179 2002ft 139kts
07-Oct-20 22:28 32.929872 -97.009622 179 1269ft 136kts
07-Oct-20 22:29 32.892332 -97.009787 179 615ft 104kts
07-Oct-20 22:30 32.880458 -97.011634 179 614ft 33kts
07-Oct-20 22:31 32.878546 -97.017026 269 614ft 22kts

Navigation Log

Ident Type
Flight plan parsing failed, navigation log unavailable